createdAt,value
2017-09-19T00:00:42.730Z,8.81
2017-09-19T00:01:42.719Z,8.8
2017-09-19T00:02:42.711Z,8.86
2017-09-19T00:03:42.693Z,8.86
2017-09-19T00:04:42.384Z,8.84
2017-09-19T00:05:42.375Z,8.71
2017-09-19T00:06:42.677Z,8.81
2017-09-19T00:07:42.352Z,8.81
2017-09-19T00:08:42.671Z,8.8
2017-09-19T00:09:42.645Z,8.77
2017-09-19T00:10:42.639Z,8.77
2017-09-19T00:11:42.316Z,8.83
2017-09-19T00:12:42.615Z,8.8
2017-09-19T00:13:42.607Z,8.74
2017-09-19T00:14:42.593Z,8.84
2017-09-19T00:15:42.587Z,8.79
2017-09-19T00:16:42.575Z,8.83
2017-09-19T00:17:42.569Z,8.79
2017-09-19T00:18:42.557Z,8.77
2017-09-19T00:19:42.546Z,8.83
2017-09-19T00:20:42.228Z,8.79
2017-09-19T00:21:42.535Z,8.68
2017-09-19T00:22:42.518Z,8.79
2017-09-19T00:23:42.507Z,8.76
2017-09-19T00:24:42.500Z,8.66
2017-09-19T00:25:42.490Z,8.7
2017-09-19T00:26:42.481Z,8.68
2017-09-19T00:27:42.474Z,8.61
2017-09-19T00:28:42.457Z,8.53
2017-09-19T00:29:42.452Z,8.61
2017-09-19T00:30:42.444Z,8.63
2017-09-19T00:31:42.438Z,8.63
2017-09-19T00:32:42.421Z,8.53
2017-09-19T00:33:42.414Z,8.5
2017-09-19T00:34:42.095Z,8.52
2017-09-19T00:35:42.397Z,8.56
2017-09-19T00:36:42.383Z,8.55
2017-09-19T00:37:42.375Z,8.5
2017-09-19T00:38:42.365Z,8.5
2017-09-19T00:39:42.364Z,8.5
2017-09-19T00:40:42.345Z,8.45
2017-09-19T00:41:42.333Z,8.43
2017-09-19T00:42:42.337Z,8.5
2017-09-19T00:43:42.006Z,8.4
2017-09-19T00:44:42.307Z,8.44
2017-09-19T00:45:42.297Z,8.41
2017-09-19T00:46:42.284Z,8.48
2017-09-19T00:47:41.970Z,8.44
2017-09-19T00:48:42.274Z,8.52
2017-09-19T00:49:42.260Z,8.43
2017-09-19T00:50:42.247Z,8.36
2017-09-19T00:51:42.237Z,8.29
2017-09-19T00:52:42.264Z,8.43
2017-09-19T00:53:41.909Z,8.34
2017-09-19T00:54:42.207Z,8.3
2017-09-19T00:55:42.201Z,8.29
2017-09-19T00:56:42.190Z,8.29
2017-09-19T00:57:41.869Z,8.34
2017-09-19T00:58:41.856Z,8.3
2017-09-19T00:59:42.159Z,8.29
2017-09-19T01:00:42.155Z,8.28
2017-09-19T01:01:42.145Z,8.29
2017-09-19T01:02:42.133Z,8.28
2017-09-19T01:03:42.118Z,8.29
2017-09-19T01:04:42.113Z,8.23
2017-09-19T01:05:42.098Z,8.28
2017-09-19T01:06:42.087Z,8.28
2017-09-19T01:07:42.079Z,8.28
2017-09-19T01:08:42.070Z,8.29
2017-09-19T01:09:42.062Z,8.34
2017-09-19T01:10:42.048Z,8.34
2017-09-19T01:11:41.729Z,8.29
2017-09-19T01:12:41.722Z,8.26
2017-09-19T01:13:41.709Z,8.29
2017-09-19T01:14:42.013Z,8.26
2017-09-19T01:15:41.994Z,8.25
2017-09-19T01:16:41.679Z,8.25
2017-09-19T01:17:41.982Z,8.26
2017-09-19T01:18:41.967Z,8.25
2017-09-19T01:19:41.958Z,8.3
2017-09-19T01:20:41.951Z,8.22
2017-09-19T01:21:41.626Z,8.22
2017-09-19T01:22:41.933Z,8.2
2017-09-19T01:23:41.917Z,8.23
2017-09-19T01:24:41.912Z,8.11
2017-09-19T01:25:41.905Z,8.22
2017-09-19T01:26:41.893Z,8.15
2017-09-19T01:27:41.916Z,8.18
2017-09-19T01:28:41.873Z,8.18
2017-09-19T01:29:41.855Z,8.19
2017-09-19T01:30:41.545Z,8.15
2017-09-19T01:31:41.848Z,8.18
2017-09-19T01:32:41.521Z,8.1
2017-09-19T01:33:41.820Z,8.16
2017-09-19T01:34:41.496Z,8.1
2017-09-19T01:35:41.802Z,8.12
2017-09-19T01:36:41.784Z,8.05
2017-09-19T01:37:41.466Z,8.02
2017-09-19T01:38:41.771Z,8.05
2017-09-19T01:39:41.757Z,8
2017-09-19T01:40:41.752Z,8.12
2017-09-19T01:41:41.741Z,8.12
2017-09-19T01:42:41.727Z,7.98
2017-09-19T01:43:41.721Z,8.12
2017-09-19T01:44:41.705Z,8.02
2017-09-19T01:45:41.387Z,8.02
2017-09-19T01:46:41.381Z,8.04
2017-09-19T01:47:41.675Z,7.98
2017-09-19T01:48:41.666Z,8
2017-09-19T01:49:41.345Z,7.93
2017-09-19T01:50:41.647Z,7.95
2017-09-19T01:51:41.637Z,7.95
2017-09-19T01:52:41.626Z,7.95
2017-09-19T01:53:41.613Z,7.89
2017-09-19T01:54:41.611Z,7.86
2017-09-19T01:55:41.595Z,7.97
2017-09-19T01:56:41.279Z,7.92
2017-09-19T01:57:41.600Z,7.89
2017-09-19T01:58:41.566Z,7.87
2017-09-19T01:59:41.559Z,7.97
2017-09-19T02:00:41.566Z,7.83
2017-09-19T02:01:41.537Z,7.85
2017-09-19T02:02:41.528Z,7.9
2017-09-19T02:03:41.764Z,7.83
2017-09-19T02:04:41.507Z,7.9
2017-09-19T02:05:41.499Z,7.83
2017-09-19T02:06:41.486Z,7.89
2017-09-19T02:07:41.167Z,7.8
2017-09-19T02:08:41.465Z,7.83
2017-09-19T02:09:40.835Z,7.85
2017-09-19T02:10:41.142Z,7.86
2017-09-19T02:11:41.431Z,7.87
2017-09-19T02:12:41.426Z,7.83
2017-09-19T02:13:41.411Z,7.82
2017-09-19T02:14:41.416Z,7.86
2017-09-19T02:15:41.393Z,7.98
2017-09-19T02:16:41.379Z,7.98
2017-09-19T02:17:41.379Z,7.95
2017-09-19T02:18:41.365Z,7.97
2017-09-19T02:19:41.352Z,8.02
2017-09-19T02:20:41.340Z,7.98
2017-09-19T02:21:41.333Z,8
2017-09-19T02:22:40.704Z,8
2017-09-19T02:23:41.316Z,8.02
2017-09-19T02:24:41.301Z,8.02
2017-09-19T02:25:41.290Z,8
2017-09-19T02:26:40.972Z,7.98
2017-09-19T02:27:41.278Z,7.98
2017-09-19T02:28:41.259Z,7.97
2017-09-19T02:29:41.253Z,8.01
2017-09-19T02:30:41.243Z,7.97
2017-09-19T02:31:41.227Z,7.92
2017-09-19T02:32:41.225Z,7.9
2017-09-19T02:33:40.907Z,7.86
2017-09-19T02:34:41.457Z,7.87
2017-09-19T02:35:41.189Z,7.89
2017-09-19T02:36:41.179Z,7.85
2017-09-19T02:37:41.169Z,7.8
2017-09-19T02:38:40.849Z,7.8
2017-09-19T02:39:41.150Z,7.8
2017-09-19T02:40:41.141Z,7.82
2017-09-19T02:41:41.128Z,7.8
2017-09-19T02:42:41.125Z,7.82
2017-09-19T02:43:41.109Z,7.83
2017-09-19T02:44:40.789Z,7.8
2017-09-19T02:45:41.090Z,7.83
2017-09-19T02:46:41.075Z,7.83
2017-09-19T02:47:41.076Z,7.79
2017-09-19T02:48:40.745Z,7.75
2017-09-19T02:49:41.046Z,7.85
2017-09-19T02:50:41.033Z,7.74
2017-09-19T02:51:41.022Z,7.77
2017-09-19T02:52:41.028Z,7.71
2017-09-19T02:53:41.003Z,7.71
2017-09-19T02:54:41.004Z,7.67
2017-09-19T02:55:41.001Z,7.67
2017-09-19T02:56:40.973Z,7.55
2017-09-19T02:57:40.962Z,7.58
2017-09-19T02:58:40.641Z,7.55
2017-09-19T02:59:40.943Z,7.57
2017-09-19T03:00:40.932Z,7.55
2017-09-19T03:01:40.921Z,7.55
2017-09-19T03:02:40.908Z,7.57
2017-09-19T03:03:40.901Z,7.6
2017-09-19T03:04:40.580Z,7.58
2017-09-19T03:05:40.881Z,7.6
2017-09-19T03:06:40.873Z,7.6
2017-09-19T03:07:40.546Z,7.64
2017-09-19T03:08:40.856Z,7.67
2017-09-19T03:09:40.845Z,7.63
2017-09-19T03:10:40.831Z,7.69
2017-09-19T03:11:40.817Z,7.61
2017-09-19T03:12:40.808Z,7.61
2017-09-19T03:13:40.488Z,7.69
2017-09-19T03:14:40.788Z,7.58
2017-09-19T03:15:40.773Z,7.67
2017-09-19T03:16:40.459Z,7.58
2017-09-19T03:17:40.756Z,7.57
2017-09-19T03:18:40.748Z,7.63
2017-09-19T03:19:40.734Z,7.52
2017-09-19T03:20:40.731Z,7.61
2017-09-19T03:21:40.720Z,7.5
2017-09-19T03:22:40.707Z,7.48
2017-09-19T03:23:40.380Z,7.58
2017-09-19T03:24:40.682Z,7.52
2017-09-19T03:25:40.673Z,7.4
2017-09-19T03:26:40.351Z,7.52
2017-09-19T03:27:40.341Z,7.6
2017-09-19T03:28:40.640Z,7.57
2017-09-19T03:29:40.631Z,7.39
2017-09-19T03:30:40.634Z,7.48
2017-09-19T03:31:40.296Z,7.45
2017-09-19T03:32:40.317Z,7.42
2017-09-19T03:33:40.283Z,7.43
2017-09-19T03:34:40.268Z,7.46
2017-09-19T03:35:40.572Z,7.45
2017-09-19T03:36:40.559Z,7.4
2017-09-19T03:37:40.896Z,7.4
2017-09-19T03:38:40.533Z,7.48
2017-09-19T03:39:40.521Z,7.46
2017-09-19T03:40:40.525Z,7.42
2017-09-19T03:41:40.505Z,7.43
2017-09-19T03:42:40.494Z,7.4
2017-09-19T03:43:40.491Z,7.35
2017-09-19T03:44:40.476Z,7.42
2017-09-19T03:45:40.462Z,7.45
2017-09-19T03:46:40.454Z,7.34
2017-09-19T03:47:40.441Z,7.39
2017-09-19T03:48:40.429Z,7.35
2017-09-19T03:49:40.423Z,7.34
2017-09-19T03:50:40.409Z,7.42
2017-09-19T03:51:40.090Z,7.37
2017-09-19T03:52:40.081Z,7.4
2017-09-19T03:53:40.375Z,7.37
2017-09-19T03:54:40.054Z,7.42
2017-09-19T03:55:40.367Z,7.4
2017-09-19T03:56:40.348Z,7.42
2017-09-19T03:57:40.338Z,7.4
2017-09-19T03:58:40.331Z,7.42
2017-09-19T03:59:40.310Z,7.35
2017-09-19T04:00:40.303Z,7.4
2017-09-19T04:01:40.304Z,7.43
2017-09-19T04:02:40.283Z,7.46
2017-09-19T04:03:40.268Z,7.42
2017-09-19T04:04:40.266Z,7.42
2017-09-19T04:05:40.249Z,7.46
2017-09-19T04:06:40.239Z,7.43
2017-09-19T04:07:40.230Z,7.46
2017-09-19T04:08:40.220Z,7.39
2017-09-19T04:09:40.206Z,7.53
2017-09-19T04:10:40.234Z,7.48
2017-09-19T04:11:40.187Z,7.52
2017-09-19T04:12:40.178Z,7.63
2017-09-19T04:13:40.169Z,7.53
2017-09-19T04:14:39.850Z,7.61
2017-09-19T04:15:40.142Z,7.5
2017-09-19T04:16:40.132Z,7.57
2017-09-19T04:17:40.124Z,7.63
2017-09-19T04:18:39.804Z,7.6
2017-09-19T04:19:40.103Z,7.58
2017-09-19T04:20:40.092Z,7.6
2017-09-19T04:21:40.084Z,7.61
2017-09-19T04:22:40.074Z,7.69
2017-09-19T04:23:40.057Z,7.71
2017-09-19T04:24:40.053Z,7.75
2017-09-19T04:25:39.734Z,7.85
2017-09-19T04:26:40.031Z,7.87
2017-09-19T04:27:40.019Z,7.83
2017-09-19T04:28:40.008Z,7.97
2017-09-19T04:29:39.999Z,8.1
2017-09-19T04:30:39.675Z,8.02
2017-09-19T04:31:39.988Z,8.05
2017-09-19T04:32:39.655Z,8.02
2017-09-19T04:33:39.960Z,8.15
2017-09-19T04:34:39.635Z,8.15
2017-09-19T04:35:39.935Z,8.16
2017-09-19T04:36:39.613Z,8.22
2017-09-19T04:37:39.917Z,8.22
2017-09-19T04:38:39.910Z,8.19
2017-09-19T04:39:39.901Z,8.33
2017-09-19T04:40:39.878Z,8.34
2017-09-19T04:41:39.872Z,8.36
2017-09-19T04:42:39.867Z,8.34
2017-09-19T04:43:39.853Z,8.36
2017-09-19T04:44:39.840Z,8.36
2017-09-19T04:45:39.831Z,8.38
2017-09-19T04:46:39.817Z,8.4
2017-09-19T04:47:39.812Z,8.44
2017-09-19T04:48:39.804Z,8.44
2017-09-19T04:49:39.827Z,8.44
2017-09-19T04:50:39.779Z,8.53
2017-09-19T04:51:39.770Z,8.52
2017-09-19T04:52:39.767Z,8.52
2017-09-19T04:53:39.754Z,8.61
2017-09-19T04:54:39.739Z,8.61
2017-09-19T04:55:39.732Z,8.76
2017-09-19T04:56:39.720Z,8.61
2017-09-19T04:57:39.716Z,8.71
2017-09-19T04:58:39.708Z,8.76
2017-09-19T04:59:39.381Z,8.79
2017-09-19T05:00:39.063Z,8.68
2017-09-19T05:01:39.677Z,8.79
2017-09-19T05:02:39.658Z,8.79
2017-09-19T05:03:39.653Z,8.77
2017-09-19T05:04:39.640Z,8.92
2017-09-19T05:05:39.637Z,8.98
2017-09-19T05:06:39.618Z,8.96
2017-09-19T05:07:39.612Z,9.04
2017-09-19T05:08:39.599Z,9.02
2017-09-19T05:09:39.594Z,9.05
2017-09-19T05:10:39.584Z,9.1
2017-09-19T05:11:39.575Z,9.18
2017-09-19T05:12:39.564Z,9.2
2017-09-19T05:13:39.554Z,9.35
2017-09-19T05:14:39.545Z,9.43
2017-09-19T05:15:39.535Z,9.48
2017-09-19T05:16:39.522Z,9.58
2017-09-19T05:17:39.517Z,9.68
2017-09-19T05:18:39.502Z,9.76
2017-09-19T05:19:39.499Z,9.86
2017-09-19T05:20:39.487Z,9.91
2017-09-19T05:21:39.176Z,10.12
2017-09-19T05:22:38.852Z,10.26
2017-09-19T05:23:39.467Z,10.4
2017-09-19T05:24:38.833Z,10.51
2017-09-19T05:25:39.441Z,10.71
2017-09-19T05:26:39.433Z,10.92
2017-09-19T05:27:39.121Z,11.09
2017-09-19T05:28:39.109Z,11.28
2017-09-19T05:29:39.416Z,11.36
2017-09-19T05:30:39.403Z,11.54
2017-09-19T05:31:39.395Z,11.75
2017-09-19T05:32:39.385Z,11.94
2017-09-19T05:33:39.379Z,12.07
2017-09-19T05:34:39.398Z,12.09
2017-09-19T05:35:39.374Z,12.34
2017-09-19T05:36:39.359Z,12.46
2017-09-19T05:37:39.359Z,12.67
2017-09-19T05:38:39.344Z,12.72
2017-09-19T05:39:39.340Z,13.03
2017-09-19T05:40:39.329Z,13.11
2017-09-19T05:41:39.326Z,13.23
2017-09-19T05:42:39.010Z,13.45
2017-09-19T05:43:39.314Z,13.62
2017-09-19T05:44:39.308Z,13.73
2017-09-19T05:45:39.304Z,13.92
2017-09-19T05:46:39.313Z,14.17
2017-09-19T05:47:39.287Z,14.21
2017-09-19T05:48:39.283Z,14.4
2017-09-19T05:49:39.281Z,14.57
2017-09-19T05:50:39.278Z,14.78
2017-09-19T05:51:39.268Z,14.98
2017-09-19T05:52:39.265Z,15.2
2017-09-19T05:53:39.259Z,15.31
2017-09-19T05:54:39.251Z,15.44
2017-09-19T05:55:39.248Z,15.65
2017-09-19T05:56:39.247Z,15.82
2017-09-19T05:57:39.241Z,16.01
2017-09-19T05:58:39.236Z,16.2
2017-09-19T05:59:39.236Z,16.21
2017-09-19T06:00:38.919Z,16.43
2017-09-19T06:01:39.224Z,16.58
2017-09-19T06:02:39.219Z,16.76
2017-09-19T06:03:38.909Z,16.83
2017-09-19T06:04:39.221Z,17.07
2017-09-19T06:05:38.901Z,17.19
2017-09-19T06:06:39.210Z,17.33
2017-09-19T06:07:39.201Z,17.46
2017-09-19T06:08:39.204Z,17.64
2017-09-19T06:09:39.200Z,17.72
2017-09-19T06:10:39.199Z,17.92
2017-09-19T06:11:39.202Z,18.03
2017-09-19T06:12:38.885Z,18.23
2017-09-19T06:13:39.187Z,18.32
2017-09-19T06:14:39.187Z,18.39
2017-09-19T06:15:38.877Z,18.32
2017-09-19T06:16:39.179Z,18.25
2017-09-19T06:17:38.871Z,18.21
2017-09-19T06:18:39.181Z,18.29
2017-09-19T06:19:39.174Z,18.45
2017-09-19T06:20:39.182Z,18.57
2017-09-19T06:21:39.174Z,18.76
2017-09-19T06:22:39.180Z,18.84
2017-09-19T06:23:39.169Z,19.14
2017-09-19T06:24:39.174Z,19.23
2017-09-19T06:25:39.167Z,19.33
2017-09-19T06:26:39.167Z,19.5
2017-09-19T06:27:39.164Z,19.63
2017-09-19T06:28:39.169Z,19.78
2017-09-19T06:29:38.856Z,19.94
2017-09-19T06:30:39.170Z,20.02
2017-09-19T06:31:39.162Z,20.17
2017-09-19T06:32:39.160Z,20.14
2017-09-19T06:33:39.165Z,20.31
2017-09-19T06:34:39.165Z,20.35
2017-09-19T06:35:39.165Z,20.54
2017-09-19T06:36:39.162Z,20.67
2017-09-19T06:37:39.169Z,20.69
2017-09-19T06:38:39.172Z,20.84
2017-09-19T06:39:39.169Z,20.91
2017-09-19T06:40:39.168Z,20.97
2017-09-19T06:41:39.183Z,20.94
2017-09-19T06:42:39.166Z,21.01
2017-09-19T06:43:39.175Z,21.01
2017-09-19T06:44:39.175Z,21.12
2017-09-19T06:45:39.175Z,21.17
2017-09-19T06:46:39.175Z,21.14
2017-09-19T06:47:39.182Z,21.25
2017-09-19T06:48:38.870Z,21.38
2017-09-19T06:49:38.878Z,21.46
2017-09-19T06:50:39.188Z,21.5
2017-09-19T06:51:38.882Z,21.75
2017-09-19T06:52:38.879Z,21.8
2017-09-19T06:53:38.880Z,21.86
2017-09-19T06:54:39.189Z,21.88
2017-09-19T06:55:38.889Z,21.92
2017-09-19T06:56:39.197Z,22.09
2017-09-19T06:57:39.204Z,21.99
2017-09-19T06:58:39.202Z,22.1
2017-09-19T06:59:39.212Z,22.25
2017-09-19T07:00:38.903Z,22.37
2017-09-19T07:01:38.908Z,22.35
2017-09-19T07:02:39.215Z,22.46
2017-09-19T07:03:39.226Z,22.47
2017-09-19T07:04:38.920Z,22.57
2017-09-19T07:05:39.232Z,22.61
2017-09-19T07:06:39.230Z,22.72
2017-09-19T07:07:39.232Z,22.67
2017-09-19T07:08:39.237Z,22.76
2017-09-19T07:09:39.251Z,22.72
2017-09-19T07:10:39.251Z,22.76
2017-09-19T07:11:39.254Z,22.82
2017-09-19T07:12:38.644Z,23.01
2017-09-19T07:13:39.260Z,22.98
2017-09-19T07:14:39.266Z,23.2
2017-09-19T07:15:39.374Z,23.22
2017-09-19T07:16:39.279Z,23.09
2017-09-19T07:17:39.288Z,23.07
2017-09-19T07:18:39.289Z,23.01
2017-09-19T07:19:39.293Z,22.94
2017-09-19T07:20:39.303Z,23
2017-09-19T07:21:39.000Z,22.82
2017-09-19T07:22:39.318Z,22.9
2017-09-19T07:23:39.318Z,22.95
2017-09-19T07:24:39.327Z,22.92
2017-09-19T07:25:39.589Z,23.02
2017-09-19T07:26:39.338Z,23.07
2017-09-19T07:27:39.348Z,23.13
2017-09-19T07:28:39.350Z,23.23
2017-09-19T07:29:39.358Z,23.36
2017-09-19T07:30:39.059Z,23.32
2017-09-19T07:31:39.373Z,23.4
2017-09-19T07:32:39.071Z,23.47
2017-09-19T07:33:39.078Z,23.54
2017-09-19T07:34:39.393Z,23.58
2017-09-19T07:35:39.397Z,23.66
2017-09-19T07:36:39.408Z,23.72
2017-09-19T07:37:39.103Z,23.83
2017-09-19T07:38:39.417Z,23.79
2017-09-19T07:39:39.423Z,23.8
2017-09-19T07:40:39.433Z,23.83
2017-09-19T07:41:39.127Z,23.72
2017-09-19T07:42:39.443Z,23.72
2017-09-19T07:43:39.451Z,23.65
2017-09-19T07:44:39.151Z,23.66
2017-09-19T07:45:39.466Z,23.66
2017-09-19T07:46:39.473Z,23.7
2017-09-19T07:47:39.478Z,23.58
2017-09-19T07:48:39.480Z,23.51
2017-09-19T07:49:39.485Z,23.47
2017-09-19T07:50:39.496Z,23.43
2017-09-19T07:51:39.501Z,23.4
2017-09-19T07:52:39.504Z,23.22
2017-09-19T07:53:39.510Z,23.13
2017-09-19T07:54:39.521Z,23.1
2017-09-19T07:55:39.523Z,22.98
2017-09-19T07:56:39.527Z,22.75
2017-09-19T07:57:39.534Z,22.49
2017-09-19T07:58:39.551Z,22.37
2017-09-19T07:59:39.235Z,22.28
2017-09-19T08:00:39.257Z,22.14
2017-09-19T08:01:39.557Z,22.06
2017-09-19T08:02:39.252Z,21.91
2017-09-19T08:03:39.256Z,21.77
2017-09-19T08:04:39.261Z,21.58
2017-09-19T08:05:39.574Z,21.42
2017-09-19T08:06:39.273Z,21.29
2017-09-19T08:07:39.582Z,21.13
2017-09-19T08:08:39.584Z,20.98
2017-09-19T08:09:39.585Z,20.72
2017-09-19T08:10:39.279Z,20.59
2017-09-19T08:11:39.286Z,20.36
2017-09-19T08:12:39.286Z,20.23
2017-09-19T08:13:39.594Z,20.06
2017-09-19T08:14:39.285Z,19.91
2017-09-19T08:15:39.598Z,19.78
2017-09-19T08:16:39.287Z,19.61
2017-09-19T08:17:39.596Z,19.44
2017-09-19T08:18:39.597Z,19.39
2017-09-19T08:19:39.289Z,19.16
2017-09-19T08:20:39.599Z,19.04
2017-09-19T08:21:40.007Z,18.9
2017-09-19T08:22:39.593Z,18.8
2017-09-19T08:23:39.592Z,18.6
2017-09-19T08:24:39.594Z,18.47
2017-09-19T08:25:39.281Z,18.44
2017-09-19T08:26:39.279Z,18.35
2017-09-19T08:27:39.592Z,18.21
2017-09-19T08:28:39.581Z,18.21
2017-09-19T08:29:39.273Z,18.12
2017-09-19T08:30:39.271Z,18.1
2017-09-19T08:31:39.579Z,18
2017-09-19T08:32:39.577Z,17.92
2017-09-19T08:33:39.571Z,17.84
2017-09-19T08:34:39.570Z,17.82
2017-09-19T08:35:39.259Z,17.72
2017-09-19T08:36:39.561Z,17.78
2017-09-19T08:37:39.253Z,17.81
2017-09-19T08:38:39.557Z,17.71
2017-09-19T08:39:39.245Z,17.66
2017-09-19T08:40:39.554Z,17.63
2017-09-19T08:41:39.549Z,17.55
2017-09-19T08:42:39.239Z,17.52
2017-09-19T08:43:39.544Z,17.55
2017-09-19T08:44:39.536Z,17.4
2017-09-19T08:45:39.568Z,17.41
2017-09-19T08:46:39.564Z,17.38
2017-09-19T08:47:39.554Z,17.4
2017-09-19T08:48:39.533Z,17.41
2017-09-19T08:49:39.216Z,17.52
2017-09-19T08:50:39.519Z,17.51
2017-09-19T08:51:39.205Z,17.46
2017-09-19T08:52:39.518Z,17.4
2017-09-19T08:53:39.508Z,17.46
2017-09-19T08:54:39.501Z,17.37
2017-09-19T08:55:39.504Z,17.46
2017-09-19T08:56:39.186Z,17.38
2017-09-19T08:57:38.876Z,17.33
2017-09-19T08:58:39.486Z,17.37
2017-09-19T08:59:39.482Z,17.43
2017-09-19T09:00:39.478Z,17.41
2017-09-19T09:01:39.167Z,17.41
2017-09-19T09:02:39.167Z,17.41
2017-09-19T09:03:39.159Z,17.43
2017-09-19T09:04:39.156Z,17.44
2017-09-19T09:05:39.459Z,17.43
2017-09-19T09:06:39.148Z,17.41
2017-09-19T09:07:38.837Z,17.43
2017-09-19T09:08:39.141Z,17.38
2017-09-19T09:09:39.448Z,17.4
2017-09-19T09:10:39.476Z,17.52
2017-09-19T09:11:39.130Z,17.48
2017-09-19T09:12:39.434Z,17.49
2017-09-19T09:13:39.136Z,17.62
2017-09-19T09:14:39.120Z,17.54
2017-09-19T09:15:38.807Z,17.43
2017-09-19T09:16:39.420Z,17.46
2017-09-19T09:17:39.420Z,17.38
2017-09-19T09:18:39.412Z,17.43
2017-09-19T09:19:39.099Z,17.41
2017-09-19T09:20:39.095Z,17.4
2017-09-19T09:21:39.400Z,17.46
2017-09-19T09:22:39.405Z,17.46
2017-09-19T09:23:39.082Z,17.48
2017-09-19T09:24:39.081Z,17.46
2017-09-19T09:25:39.075Z,17.48
2017-09-19T09:26:39.379Z,17.46
2017-09-19T09:27:39.375Z,17.48
2017-09-19T09:28:39.063Z,17.46
2017-09-19T09:29:39.062Z,17.44
2017-09-19T09:30:39.365Z,17.51
2017-09-19T09:31:39.053Z,17.56
2017-09-19T09:32:39.052Z,17.64
2017-09-19T09:33:39.355Z,17.66
2017-09-19T09:34:39.351Z,17.62
2017-09-19T09:35:39.286Z,17.64
2017-09-19T09:36:39.341Z,17.62
2017-09-19T09:37:38.720Z,17.66
2017-09-19T09:38:39.023Z,17.72
2017-09-19T09:39:39.020Z,17.72
2017-09-19T09:40:39.334Z,17.79
2017-09-19T09:41:39.014Z,17.78
2017-09-19T09:42:39.315Z,17.74
2017-09-19T09:43:39.007Z,17.71
2017-09-19T09:44:39.315Z,17.81
2017-09-19T09:45:38.998Z,17.81
2017-09-19T09:46:39.303Z,17.87
2017-09-19T09:47:39.298Z,17.92
2017-09-19T09:48:38.997Z,17.82
2017-09-19T09:49:39.293Z,17.84
2017-09-19T09:50:38.978Z,17.93
2017-09-19T09:51:38.975Z,17.87
2017-09-19T09:52:38.972Z,17.87
2017-09-19T09:53:38.976Z,17.95
2017-09-19T09:54:39.277Z,17.96
2017-09-19T09:55:38.961Z,18.07
2017-09-19T09:56:39.207Z,18
2017-09-19T09:57:38.650Z,18.08
2017-09-19T09:58:38.950Z,18.15
2017-09-19T09:59:39.259Z,18.14
2017-09-19T10:00:38.943Z,18.2
2017-09-19T10:01:39.247Z,18.17
2017-09-19T10:02:39.250Z,18.25
2017-09-19T10:03:38.624Z,18.2
2017-09-19T10:04:38.928Z,18.26
2017-09-19T10:05:39.232Z,18.2
2017-09-19T10:06:39.437Z,18.2
2017-09-19T10:07:39.223Z,18.18
2017-09-19T10:08:38.606Z,18.23
2017-09-19T10:09:39.223Z,18.27
2017-09-19T10:10:39.213Z,18.27
2017-09-19T10:11:39.218Z,18.3
2017-09-19T10:12:39.205Z,18.29
2017-09-19T10:13:39.206Z,18.3
2017-09-19T10:14:39.200Z,18.42
2017-09-19T10:15:39.195Z,18.32
2017-09-19T10:16:39.192Z,18.37
2017-09-19T10:17:38.882Z,18.45
2017-09-19T10:18:39.184Z,18.48
2017-09-19T10:19:39.183Z,18.52
2017-09-19T10:20:39.182Z,18.51
2017-09-19T10:21:39.185Z,18.52
2017-09-19T10:22:39.169Z,18.6
2017-09-19T10:23:39.169Z,18.73
2017-09-19T10:24:39.164Z,18.75
2017-09-19T10:25:39.160Z,18.87
2017-09-19T10:26:39.160Z,18.81
2017-09-19T10:27:39.405Z,18.9
2017-09-19T10:28:39.151Z,18.98
2017-09-19T10:29:39.151Z,18.91
2017-09-19T10:30:39.145Z,18.92
2017-09-19T10:31:39.139Z,19.02
2017-09-19T10:32:39.137Z,18.95
2017-09-19T10:33:39.136Z,18.92
2017-09-19T10:34:39.132Z,19.02
2017-09-19T10:35:39.135Z,19.1
2017-09-19T10:36:39.123Z,19.11
2017-09-19T10:37:39.121Z,19.23
2017-09-19T10:38:38.816Z,19.33
2017-09-19T10:39:38.807Z,19.46
2017-09-19T10:40:39.113Z,19.39
2017-09-19T10:41:38.801Z,19.55
2017-09-19T10:42:38.799Z,19.56
2017-09-19T10:43:39.110Z,19.68
2017-09-19T10:44:39.100Z,19.87
2017-09-19T10:45:39.111Z,19.84
2017-09-19T10:46:39.095Z,19.98
2017-09-19T10:47:39.092Z,19.98
2017-09-19T10:48:39.096Z,20.06
2017-09-19T10:49:38.782Z,20.01
2017-09-19T10:50:39.086Z,20.06
2017-09-19T10:51:39.084Z,20.18
2017-09-19T10:52:39.080Z,20.23
2017-09-19T10:53:39.077Z,20.39
2017-09-19T10:54:38.766Z,20.47
2017-09-19T10:55:39.074Z,20.64
2017-09-19T10:56:39.068Z,20.69
2017-09-19T10:57:39.066Z,20.84
2017-09-19T10:58:39.033Z,20.91
2017-09-19T10:59:38.752Z,20.98
2017-09-19T11:00:39.059Z,21.04
2017-09-19T11:01:39.057Z,21.13
2017-09-19T11:02:38.747Z,21.21
2017-09-19T11:03:38.745Z,21.19
2017-09-19T11:04:38.744Z,21.28
2017-09-19T11:05:39.050Z,21.35
2017-09-19T11:06:39.048Z,21.32
2017-09-19T11:07:39.045Z,21.4
2017-09-19T11:08:39.044Z,21.37
2017-09-19T11:09:39.041Z,21.35
2017-09-19T11:10:39.041Z,21.31
2017-09-19T11:11:39.038Z,21.24
2017-09-19T11:12:38.730Z,21.29
2017-09-19T11:13:38.728Z,21.17
2017-09-19T11:14:39.033Z,21.21
2017-09-19T11:15:38.723Z,21.28
2017-09-19T11:16:38.723Z,21.32
2017-09-19T11:17:38.722Z,21.4
2017-09-19T11:18:39.027Z,21.5
2017-09-19T11:19:39.025Z,21.58
2017-09-19T11:20:39.022Z,21.62
2017-09-19T11:21:39.022Z,21.72
2017-09-19T11:22:38.404Z,21.82
2017-09-19T11:23:39.025Z,21.84
2017-09-19T11:24:38.714Z,21.91
2017-09-19T11:25:39.019Z,21.98
2017-09-19T11:26:39.217Z,22
2017-09-19T11:27:38.707Z,22.06
2017-09-19T11:28:39.013Z,22.21
2017-09-19T11:29:39.011Z,22.21
2017-09-19T11:30:39.010Z,22.3
2017-09-19T11:31:39.010Z,22.39
2017-09-19T11:32:39.010Z,22.43
2017-09-19T11:33:39.008Z,22.49
2017-09-19T11:34:39.022Z,22.51
2017-09-19T11:35:38.702Z,22.64
2017-09-19T11:36:38.697Z,22.61
2017-09-19T11:37:38.699Z,22.73
2017-09-19T11:38:39.008Z,22.79
2017-09-19T11:39:39.004Z,22.9
2017-09-19T11:40:39.002Z,22.88
2017-09-19T11:41:38.385Z,22.95
2017-09-19T11:42:39.000Z,22.85
2017-09-19T11:43:39.000Z,22.97
2017-09-19T11:44:38.693Z,22.91
2017-09-19T11:45:39.005Z,23
2017-09-19T11:46:38.998Z,23.01
2017-09-19T11:47:39.003Z,22.98
2017-09-19T11:48:38.999Z,22.98
2017-09-19T11:49:38.999Z,23.05
2017-09-19T11:50:39.001Z,23.16
2017-09-19T11:51:38.997Z,23.17
2017-09-19T11:52:38.998Z,23.25
2017-09-19T11:53:38.690Z,23.31
2017-09-19T11:54:38.688Z,23.38
2017-09-19T11:55:38.996Z,23.46
2017-09-19T11:56:38.688Z,23.51
2017-09-19T11:57:38.998Z,23.57
2017-09-19T11:58:39.000Z,23.61
2017-09-19T11:59:38.998Z,23.7
2017-09-19T12:00:38.996Z,23.8
2017-09-19T12:01:38.691Z,23.87
2017-09-19T12:02:39.001Z,23.93
2017-09-19T12:03:38.995Z,23.98
2017-09-19T12:04:39.002Z,24.09
2017-09-19T12:05:38.999Z,24.1
2017-09-19T12:06:38.997Z,24.16
2017-09-19T12:07:39.003Z,24.25
2017-09-19T12:08:39.001Z,24.16
2017-09-19T12:09:39.000Z,24.24
2017-09-19T12:10:39.000Z,24.15
2017-09-19T12:11:39.003Z,24.13
2017-09-19T12:12:39.001Z,24.08
2017-09-19T12:13:39.001Z,24.06
2017-09-19T12:14:39.002Z,24.1
2017-09-19T12:15:39.003Z,24.09
2017-09-19T12:16:38.697Z,24.06
2017-09-19T12:17:38.696Z,24.05
2017-09-19T12:18:39.005Z,24.06
2017-09-19T12:19:39.004Z,24.06
2017-09-19T12:20:39.006Z,23.95
2017-09-19T12:21:39.009Z,23.95
2017-09-19T12:22:38.390Z,23.95
2017-09-19T12:23:38.699Z,24.1
2017-09-19T12:24:39.009Z,24.06
2017-09-19T12:25:38.393Z,24.12
2017-09-19T12:26:39.014Z,24.24
2017-09-19T12:27:39.015Z,24.2
2017-09-19T12:28:39.012Z,24.13
2017-09-19T12:29:39.012Z,24.13
2017-09-19T12:30:39.013Z,24.02
2017-09-19T12:31:38.711Z,23.83
2017-09-19T12:32:39.013Z,23.9
2017-09-19T12:33:39.016Z,23.8
2017-09-19T12:34:39.014Z,23.69
2017-09-19T12:35:39.026Z,23.65
2017-09-19T12:36:39.019Z,23.65
2017-09-19T12:37:38.708Z,23.73
2017-09-19T12:38:38.712Z,23.7
2017-09-19T12:39:39.016Z,23.65
2017-09-19T12:40:39.019Z,23.73
2017-09-19T12:41:39.018Z,23.73
2017-09-19T12:42:38.746Z,23.69
2017-09-19T12:43:39.020Z,23.72
2017-09-19T12:44:39.021Z,23.6
2017-09-19T12:45:39.022Z,23.51
2017-09-19T12:46:39.026Z,23.48
2017-09-19T12:47:39.024Z,23.39
2017-09-19T12:48:39.023Z,23.31
2017-09-19T12:49:38.714Z,23.25
2017-09-19T12:50:39.023Z,23.22
2017-09-19T12:51:39.025Z,23.15
2017-09-19T12:52:39.023Z,23.02
2017-09-19T12:53:39.023Z,22.92
2017-09-19T12:54:39.029Z,22.88
2017-09-19T12:55:38.716Z,22.79
2017-09-19T12:56:38.721Z,22.6
2017-09-19T12:57:38.720Z,22.64
2017-09-19T12:58:38.719Z,22.54
2017-09-19T12:59:39.027Z,22.6
2017-09-19T13:00:39.032Z,22.54
2017-09-19T13:01:38.722Z,22.64
2017-09-19T13:02:38.720Z,22.6
2017-09-19T13:03:39.030Z,22.73
2017-09-19T13:04:39.025Z,22.73
2017-09-19T13:05:38.717Z,22.76
2017-09-19T13:06:38.722Z,22.64
2017-09-19T13:07:39.033Z,22.64